createdAt,value
2019-02-02T00:02:27.439Z,35.20
2019-02-02T00:04:55.242Z,35.97
2019-02-02T00:07:23.190Z,37.53
2019-02-02T00:09:50.994Z,35.57
2019-02-02T00:12:18.919Z,35.07
2019-02-02T00:14:46.891Z,36.60
2019-02-02T00:17:14.675Z,34.47
2019-02-02T00:19:42.488Z,34.50
2019-02-02T00:22:10.376Z,36.27
2019-02-02T00:24:38.277Z,36.20
2019-02-02T00:27:06.210Z,36.60
2019-02-02T00:29:34.070Z,38.23
2019-02-02T00:32:01.885Z,36.40
2019-02-02T00:34:29.704Z,37.77
2019-02-02T00:36:59.259Z,36.03
2019-02-02T00:39:27.262Z,37.47
2019-02-02T00:41:55.094Z,38.10
2019-02-02T00:44:23.022Z,36.20
2019-02-02T00:46:50.863Z,35.67
2019-02-02T00:49:18.718Z,35.77
2019-02-02T00:51:46.905Z,36.17
2019-02-02T00:54:14.741Z,34.60
2019-02-02T00:56:42.543Z,36.50
2019-02-02T00:59:10.523Z,37.30
2019-02-02T01:01:38.409Z,35.87
2019-02-02T01:04:06.235Z,35.13
2019-02-02T01:06:34.144Z,36.30
2019-02-02T01:09:02.016Z,35.90
2019-02-02T01:11:29.831Z,34.50
2019-02-02T01:13:57.665Z,36.47
2019-02-02T01:16:25.549Z,35.67
2019-02-02T01:18:53.531Z,35.07
2019-02-02T01:21:21.467Z,35.50
2019-02-02T01:23:49.323Z,35.90
2019-02-02T01:26:17.367Z,34.57
2019-02-02T01:28:45.200Z,36.43
2019-02-02T01:31:13.048Z,34.63
2019-02-02T01:33:41.023Z,35.27
2019-02-02T01:36:08.848Z,33.93
2019-02-02T01:38:36.674Z,34.23
2019-02-02T01:41:04.565Z,32.53
2019-02-02T01:43:32.380Z,32.73
2019-02-02T01:46:00.306Z,33.90
2019-02-02T01:48:28.234Z,34.77
2019-02-02T01:50:56.044Z,33.17
2019-02-02T01:53:23.970Z,34.20
2019-02-02T01:55:51.824Z,35.27
2019-02-02T01:58:19.637Z,32.93
2019-02-02T02:00:47.465Z,33.93
2019-02-02T02:03:15.372Z,34.30
2019-02-02T02:05:43.317Z,31.70
2019-02-02T02:08:11.158Z,33.63
2019-02-02T02:10:39.032Z,33.37
2019-02-02T02:13:06.868Z,34.00
2019-02-02T02:15:34.760Z,33.33
2019-02-02T02:18:02.658Z,35.10
2019-02-02T02:20:30.525Z,34.23
2019-02-02T02:22:58.351Z,34.37
2019-02-02T02:25:26.473Z,35.00
2019-02-02T02:27:54.345Z,34.60
2019-02-02T02:30:22.590Z,35.47
2019-02-02T02:32:50.622Z,35.00
2019-02-02T02:35:18.571Z,34.80
2019-02-02T02:37:46.660Z,35.67
2019-02-02T02:40:15.680Z,35.03
2019-02-02T02:42:43.578Z,37.17
2019-02-02T02:45:11.493Z,35.47
2019-02-02T02:47:39.413Z,37.13
2019-02-02T02:50:08.426Z,34.40
2019-02-02T02:52:36.300Z,35.27
2019-02-02T02:55:04.548Z,33.90
2019-02-02T02:57:32.448Z,35.60
2019-02-02T03:00:00.413Z,34.90
2019-02-02T03:02:28.278Z,34.63
2019-02-02T03:04:57.734Z,35.07
2019-02-02T03:07:25.585Z,35.37
2019-02-02T03:09:53.502Z,34.93
2019-02-02T03:12:21.335Z,33.37
2019-02-02T03:14:49.130Z,34.23
2019-02-02T03:17:16.974Z,33.67
2019-02-02T03:19:44.881Z,34.17
2019-02-02T03:22:12.715Z,34.17
2019-02-02T03:24:40.653Z,34.30
2019-02-02T03:27:08.556Z,32.67
2019-02-02T03:29:36.470Z,34.23
2019-02-02T03:32:04.329Z,34.00
2019-02-02T03:34:32.180Z,34.00
2019-02-02T03:36:59.980Z,35.53
2019-02-02T03:39:28.025Z,35.33
2019-02-02T03:41:55.848Z,33.50
2019-02-02T03:44:23.686Z,32.93
2019-02-02T03:46:51.684Z,33.50
2019-02-02T03:49:19.504Z,35.03
2019-02-02T03:51:47.384Z,34.80
2019-02-02T03:54:16.630Z,33.87
2019-02-02T03:56:44.652Z,34.40
2019-02-02T03:59:12.560Z,34.47
2019-02-02T04:01:40.620Z,35.27
2019-02-02T04:04:08.486Z,35.70
2019-02-02T04:06:36.301Z,34.10
2019-02-02T04:09:06.274Z,37.53
2019-02-02T04:11:34.171Z,33.97
2019-02-02T04:14:02.076Z,34.67
2019-02-02T04:16:30.035Z,35.50
2019-02-02T04:18:57.971Z,36.50
2019-02-02T04:21:26.235Z,37.00
2019-02-02T04:23:54.110Z,37.67
2019-02-02T04:26:21.924Z,38.30
2019-02-02T04:28:50.048Z,40.10
2019-02-02T04:31:17.916Z,41.83
2019-02-02T04:33:45.797Z,39.53
2019-02-02T04:36:13.698Z,38.17
2019-02-02T04:38:41.592Z,40.00
2019-02-02T04:41:09.487Z,39.53
2019-02-02T04:43:37.470Z,41.17
2019-02-02T04:46:05.334Z,41.23
2019-02-02T04:48:33.271Z,41.27
2019-02-02T04:51:01.191Z,40.20
2019-02-02T04:53:29.058Z,38.13
2019-02-02T04:55:56.862Z,41.60
2019-02-02T04:58:24.904Z,39.43
2019-02-02T05:00:52.786Z,40.17
2019-02-02T05:03:20.973Z,38.93
2019-02-02T05:05:48.806Z,39.93
2019-02-02T05:08:16.667Z,39.43
2019-02-02T05:10:44.561Z,37.57
2019-02-02T05:13:12.399Z,39.73
2019-02-02T05:15:40.329Z,39.57
2019-02-02T05:18:08.135Z,39.63
2019-02-02T05:20:36.130Z,37.87
2019-02-02T05:23:03.998Z,37.07
2019-02-02T05:25:31.866Z,38.13
2019-02-02T05:27:59.754Z,37.63
2019-02-02T05:30:28.517Z,38.17
2019-02-02T05:32:56.521Z,37.80
2019-02-02T05:35:24.321Z,36.33
2019-02-02T05:37:52.195Z,36.70
2019-02-02T05:40:20.096Z,36.73
2019-02-02T05:42:47.928Z,34.83
2019-02-02T05:45:16.790Z,38.33
2019-02-02T05:47:44.682Z,34.73
2019-02-02T05:50:13.220Z,34.03
2019-02-02T05:52:41.211Z,33.17
2019-02-02T05:55:09.622Z,33.40
2019-02-02T05:57:37.540Z,34.23
2019-02-02T06:00:07.071Z,33.10
2019-02-02T06:02:34.974Z,33.23
2019-02-02T06:05:02.865Z,32.60
2019-02-02T06:07:33.792Z,35.13
2019-02-02T06:10:01.661Z,34.17
2019-02-02T06:12:30.807Z,30.93
2019-02-02T06:14:58.638Z,32.47
2019-02-02T06:17:26.441Z,31.97
2019-02-02T06:19:54.310Z,32.17
2019-02-02T06:22:22.377Z,31.80
2019-02-02T06:24:52.617Z,31.23
2019-02-02T06:27:19.820Z,31.87
2019-02-02T06:29:47.745Z,31.27
2019-02-02T06:32:17.896Z,30.20
2019-02-02T06:34:45.743Z,30.67
2019-02-02T06:37:13.645Z,31.47
2019-02-02T06:39:41.473Z,31.53
2019-02-02T06:42:09.413Z,29.83
2019-02-02T06:44:37.283Z,30.13
2019-02-02T06:47:05.095Z,29.97
2019-02-02T06:49:33.109Z,30.57
2019-02-02T06:52:01.010Z,29.83
2019-02-02T06:54:33.298Z,30.07
2019-02-02T06:56:58.395Z,28.90
2019-02-02T06:59:26.243Z,31.27
2019-02-02T07:01:54.225Z,29.50
2019-02-02T07:04:22.040Z,29.70
2019-02-02T07:06:49.922Z,31.00
2019-02-02T07:09:17.757Z,30.00
2019-02-02T07:11:45.637Z,30.93
2019-02-02T07:14:13.549Z,29.73
2019-02-02T07:16:41.348Z,30.07
2019-02-02T07:19:09.145Z,30.67
2019-02-02T07:21:36.938Z,28.63
2019-02-02T07:24:04.743Z,29.63
2019-02-02T07:26:35.515Z,30.53
2019-02-02T07:29:03.355Z,29.87
2019-02-02T07:31:31.191Z,29.20
2019-02-02T07:33:59.033Z,31.30
2019-02-02T07:36:26.822Z,29.60
2019-02-02T07:38:54.648Z,31.57
2019-02-02T07:41:22.584Z,29.40
2019-02-02T07:43:50.588Z,31.50
2019-02-02T07:46:18.463Z,32.07
2019-02-02T07:48:46.341Z,31.53
2019-02-02T07:51:14.320Z,34.83
2019-02-02T07:53:42.139Z,32.50
2019-02-02T07:56:10.039Z,32.30
2019-02-02T07:58:37.864Z,31.87
2019-02-02T08:01:05.660Z,31.30
2019-02-02T08:03:33.730Z,32.23
2019-02-02T08:06:01.599Z,33.40
2019-02-02T08:08:29.464Z,33.17
2019-02-02T08:10:57.493Z,32.10
2019-02-02T08:13:25.379Z,32.07
2019-02-02T08:15:53.246Z,33.73
2019-02-02T08:18:21.140Z,32.60
2019-02-02T08:20:48.927Z,33.43
2019-02-02T08:23:16.720Z,32.27
2019-02-02T08:25:44.576Z,32.20
2019-02-02T08:28:12.466Z,33.63
2019-02-02T08:30:51.574Z,32.80
2019-02-02T08:33:09.961Z,32.40
2019-02-02T08:35:37.976Z,33.17
2019-02-02T08:38:05.920Z,34.67
2019-02-02T08:40:33.806Z,33.33
2019-02-02T08:43:01.711Z,31.37
2019-02-02T08:45:29.516Z,33.60
2019-02-02T08:47:57.515Z,32.70
2019-02-02T08:50:26.799Z,32.67
2019-02-02T08:52:54.702Z,33.03
2019-02-02T08:55:22.666Z,32.27
2019-02-02T08:57:50.551Z,32.43
2019-02-02T09:00:19.000Z,34.13
2019-02-02T09:02:46.897Z,31.37
2019-02-02T09:05:15.556Z,32.53
2019-02-02T09:07:43.358Z,31.70
2019-02-02T09:10:12.708Z,31.70
2019-02-02T09:12:40.561Z,32.03
2019-02-02T09:15:09.100Z,33.63
2019-02-02T09:17:37.261Z,34.27
2019-02-02T09:20:06.798Z,34.13
2019-02-02T09:22:34.682Z,33.00
2019-02-02T09:25:03.171Z,35.60
2019-02-02T09:27:31.032Z,33.87
2019-02-02T09:29:58.827Z,33.20
2019-02-02T09:32:26.672Z,34.93
2019-02-02T09:34:54.888Z,33.40
2019-02-02T09:37:24.184Z,33.23
2019-02-02T09:39:52.604Z,32.03
2019-02-02T09:42:20.427Z,34.23
2019-02-02T09:44:48.294Z,34.57
2019-02-02T09:47:16.307Z,34.53
2019-02-02T09:49:44.217Z,33.53
2019-02-02T09:52:12.085Z,33.43
2019-02-02T09:54:40.024Z,33.77
2019-02-02T09:57:10.650Z,33.17
2019-02-02T09:59:38.567Z,34.40
2019-02-02T10:02:06.522Z,33.80
2019-02-02T10:04:34.364Z,32.47
2019-02-02T10:07:03.832Z,32.83
2019-02-02T10:09:33.115Z,32.20
2019-02-02T10:12:00.978Z,32.83
2019-02-02T10:14:28.864Z,33.07
2019-02-02T10:16:57.079Z,32.60
2019-02-02T10:19:28.133Z,31.97
2019-02-02T10:21:56.054Z,31.13
2019-02-02T10:24:24.019Z,30.10
2019-02-02T10:26:51.954Z,30.50
2019-02-02T10:29:19.830Z,30.00
2019-02-02T10:31:47.691Z,31.63
2019-02-02T10:34:15.729Z,32.20
2019-02-02T10:36:43.695Z,30.43
2019-02-02T10:39:11.629Z,31.00
2019-02-02T10:41:39.619Z,31.93
2019-02-02T10:44:07.627Z,29.77
2019-02-02T10:46:35.450Z,27.27
2019-02-02T10:49:03.314Z,26.27
2019-02-02T10:51:31.499Z,27.80
2019-02-02T10:53:59.350Z,28.57
2019-02-02T10:56:27.219Z,29.77
2019-02-02T10:58:55.104Z,28.67
2019-02-02T11:01:22.925Z,27.70
2019-02-02T11:03:50.888Z,29.23
2019-02-02T11:06:18.865Z,28.27
2019-02-02T11:08:46.801Z,27.67
2019-02-02T11:11:14.668Z,26.63
2019-02-02T11:13:42.651Z,29.20
2019-02-02T11:16:10.763Z,27.53
2019-02-02T11:18:38.618Z,26.80
2019-02-02T11:21:06.558Z,26.80
2019-02-02T11:23:34.597Z,27.13
2019-02-02T11:26:02.560Z,27.73
2019-02-02T11:28:30.440Z,26.20
2019-02-02T11:30:58.549Z,27.37
2019-02-02T11:33:26.382Z,26.23
2019-02-02T11:35:54.179Z,27.10
2019-02-02T11:38:22.447Z,26.83
2019-02-02T11:40:50.367Z,25.73
2019-02-02T11:43:18.243Z,25.93
2019-02-02T11:45:46.052Z,25.87
2019-02-02T11:48:15.107Z,25.77
2019-02-02T11:50:43.041Z,25.87
2019-02-02T11:53:10.907Z,26.07
2019-02-02T11:55:38.969Z,25.90
2019-02-02T11:58:06.779Z,25.77
2019-02-02T12:00:38.277Z,27.13
2019-02-02T12:03:06.111Z,25.03
2019-02-02T12:05:34.014Z,26.47
2019-02-02T12:08:01.800Z,26.03
2019-02-02T12:10:29.731Z,25.20
2019-02-02T12:12:57.559Z,24.20
2019-02-02T12:15:25.376Z,24.63
2019-02-02T12:17:53.205Z,24.67
2019-02-02T12:20:21.177Z,24.43
2019-02-02T12:22:49.012Z,23.37
2019-02-02T12:25:16.886Z,22.73
2019-02-02T12:27:44.744Z,22.13
2019-02-02T12:30:13.942Z,23.43
2019-02-02T12:32:41.738Z,18.80
2019-02-02T12:35:10.566Z,18.37
2019-02-02T12:37:38.427Z,17.53
2019-02-02T12:40:06.791Z,18.27
2019-02-02T12:42:34.893Z,19.40
2019-02-02T12:45:02.830Z,17.23
2019-02-02T12:47:30.676Z,17.10
2019-02-02T12:49:58.672Z,18.33
2019-02-02T12:52:26.509Z,16.93
2019-02-02T12:54:54.366Z,18.13
2019-02-02T12:57:22.298Z,18.50
2019-02-02T12:59:50.172Z,18.03
2019-02-02T13:02:18.072Z,18.10
2019-02-02T13:04:46.004Z,16.20
2019-02-02T13:07:14.337Z,15.13
2019-02-02T13:09:42.392Z,14.37
2019-02-02T13:12:10.332Z,12.77
2019-02-02T13:14:38.181Z,13.33
2019-02-02T13:17:06.196Z,11.07
2019-02-02T13:19:34.094Z,12.50
2019-02-02T13:22:01.969Z,12.93
2019-02-02T13:24:30.081Z,11.93
2019-02-02T13:26:58.032Z,12.40
2019-02-02T13:29:25.918Z,13.43
2019-02-02T13:31:53.780Z,13.13
2019-02-02T13:34:21.616Z,12.60
2019-02-02T13:36:49.391Z,12.47
2019-02-02T13:39:20.412Z,13.97
2019-02-02T13:41:48.406Z,13.20
2019-02-02T13:44:16.348Z,13.50
2019-02-02T13:46:44.295Z,13.67
2019-02-02T13:49:12.427Z,13.13
2019-02-02T13:51:40.254Z,12.90
2019-02-02T13:54:08.049Z,13.13
2019-02-02T13:56:35.866Z,12.50
2019-02-02T13:59:03.780Z,14.10
2019-02-02T14:01:41.807Z,11.87
2019-02-02T14:04:01.336Z,13.67
2019-02-02T14:06:29.131Z,12.43
2019-02-02T14:08:57.011Z,11.30
2019-02-02T14:11:24.850Z,11.50
2019-02-02T14:13:52.718Z,10.80
2019-02-02T14:16:20.596Z,10.87
2019-02-02T14:18:48.440Z,12.13
2019-02-02T14:21:16.273Z,11.70
2019-02-02T14:23:44.108Z,12.30
2019-02-02T14:26:12.111Z,12.40
2019-02-02T14:28:40.112Z,12.67
2019-02-02T14:31:08.132Z,13.07
2019-02-02T14:33:36.136Z,13.60
2019-02-02T14:36:04.157Z,12.33
2019-02-02T14:38:32.205Z,13.43
2019-02-02T14:41:00.053Z,13.73
2019-02-02T14:43:27.969Z,12.63
2019-02-02T14:45:56.002Z,13.53
2019-02-02T14:48:23.791Z,12.80
2019-02-02T14:50:51.690Z,14.90
2019-02-02T14:53:19.515Z,13.43
2019-02-02T14:55:47.354Z,14.67
2019-02-02T14:58:15.213Z,13.80
2019-02-02T15:00:43.072Z,14.00
2019-02-02T15:03:10.953Z,13.57
2019-02-02T15:05:42.999Z,15.00
2019-02-02T15:08:08.586Z,15.93
2019-02-02T15:10:36.688Z,15.70
2019-02-02T15:13:04.623Z,16.10
2019-02-02T15:15:32.495Z,16.37
2019-02-02T15:18:00.405Z,17.07
2019-02-02T15:20:29.519Z,16.50
2019-02-02T15:22:57.431Z,16.60
2019-02-02T15:25:25.396Z,16.43
2019-02-02T15:27:53.378Z,17.83
2019-02-02T15:30:21.951Z,18.93
2019-02-02T15:32:49.928Z,16.70
2019-02-02T15:35:17.867Z,16.03
2019-02-02T15:37:45.737Z,16.93
2019-02-02T15:40:14.357Z,15.87
2019-02-02T15:42:42.422Z,15.50
2019-02-02T15:45:11.426Z,15.63
2019-02-02T15:47:39.306Z,15.20
2019-02-02T15:50:08.175Z,15.63
2019-02-02T15:52:36.206Z,15.90
2019-02-02T15:55:05.728Z,16.37
2019-02-02T15:57:33.657Z,14.90
2019-02-02T16:00:01.600Z,15.33
2019-02-02T16:02:29.531Z,14.80
2019-02-02T16:04:57.448Z,12.57
2019-02-02T16:07:25.376Z,15.00
2019-02-02T16:09:53.242Z,13.23
2019-02-02T16:12:21.156Z,13.63
2019-02-02T16:14:49.201Z,13.20
2019-02-02T16:17:17.073Z,12.93
2019-02-02T16:19:44.985Z,13.13
2019-02-02T16:22:12.823Z,12.60
2019-02-02T16:24:40.802Z,13.03
2019-02-02T16:27:08.852Z,13.77
2019-02-02T16:29:36.947Z,13.77
2019-02-02T16:32:04.812Z,13.47
2019-02-02T16:34:32.705Z,14.17
2019-02-02T16:37:00.633Z,14.50
2019-02-02T16:39:28.582Z,15.00
2019-02-02T16:41:56.567Z,14.67
2019-02-02T16:44:24.490Z,15.50
2019-02-02T16:46:52.374Z,15.50
2019-02-02T16:49:20.216Z,15.70
2019-02-02T16:51:48.057Z,16.80
2019-02-02T16:54:16.191Z,16.30
2019-02-02T16:56:44.244Z,16.03
2019-02-02T16:59:12.358Z,18.30
2019-02-02T17:01:40.378Z,18.20
2019-02-02T17:04:15.358Z,18.13
2019-02-02T17:06:37.831Z,19.87
2019-02-02T17:09:07.199Z,18.87
2019-02-02T17:11:35.151Z,19.23
2019-02-02T17:14:03.026Z,21.20
2019-02-02T17:16:30.910Z,22.60
2019-02-02T17:18:58.777Z,21.00
2019-02-02T17:21:29.077Z,20.10
2019-02-02T17:23:56.375Z,20.00
2019-02-02T17:26:24.423Z,20.40
2019-02-02T17:28:52.252Z,19.20
2019-02-02T17:31:20.053Z,20.43
2019-02-02T17:33:47.905Z,21.20
2019-02-02T17:36:17.463Z,20.37
2019-02-02T17:38:45.309Z,21.07
2019-02-02T17:41:13.217Z,21.37
2019-02-02T17:43:41.104Z,21.23
2019-02-02T17:46:09.070Z,21.40
2019-02-02T17:48:37.459Z,21.90
2019-02-02T17:51:05.315Z,23.03
2019-02-02T17:53:33.204Z,22.80
2019-02-02T17:56:01.208Z,22.53
2019-02-02T17:58:39.382Z,21.70
2019-02-02T18:01:00.287Z,21.27
2019-02-02T18:03:28.188Z,21.43
2019-02-02T18:05:56.088Z,22.10
2019-02-02T18:08:23.935Z,22.03
2019-02-02T18:10:51.835Z,21.43
2019-02-02T18:13:19.692Z,21.57
2019-02-02T18:15:47.556Z,19.43
2019-02-02T18:18:15.796Z,19.27
2019-02-02T18:20:43.839Z,17.30
2019-02-02T18:23:11.639Z,15.47
2019-02-02T18:25:39.541Z,15.07
2019-02-02T18:28:07.634Z,13.23
2019-02-02T18:30:35.538Z,13.23
2019-02-02T18:33:03.379Z,12.73
2019-02-02T18:35:31.200Z,13.03
2019-02-02T18:37:59.092Z,13.03
2019-02-02T18:40:26.955Z,11.57
2019-02-02T18:42:54.797Z,12.43
2019-02-02T18:45:23.442Z,11.63
2019-02-02T18:47:51.295Z,12.20
2019-02-02T18:50:19.209Z,11.07
2019-02-02T18:52:47.304Z,11.67
2019-02-02T18:55:16.639Z,11.50
2019-02-02T18:57:44.628Z,10.93
2019-02-02T19:00:14.177Z,11.73
2019-02-02T19:02:42.074Z,12.33
2019-02-02T19:05:10.911Z,11.77
2019-02-02T19:07:38.781Z,11.63
2019-02-02T19:10:08.259Z,12.80
2019-02-02T19:12:36.124Z,14.53
2019-02-02T19:15:04.294Z,14.13
2019-02-02T19:17:32.504Z,14.93
2019-02-02T19:20:00.399Z,15.63
2019-02-02T19:22:28.220Z,16.43
2019-02-02T19:24:56.074Z,15.40
2019-02-02T19:27:23.919Z,17.23
2019-02-02T19:29:51.809Z,15.97
2019-02-02T19:32:19.659Z,16.87
2019-02-02T19:34:47.483Z,16.73
2019-02-02T19:37:15.427Z,18.37
2019-02-02T19:39:45.284Z,18.03
2019-02-02T19:42:13.130Z,18.07
2019-02-02T19:44:41.118Z,17.70
2019-02-02T19:47:15.795Z,17.67
2019-02-02T19:49:38.666Z,17.10
2019-02-02T19:52:06.647Z,18.23
2019-02-02T19:54:34.463Z,17.93
2019-02-02T19:57:02.452Z,15.53
2019-02-02T19:59:30.512Z,17.03
2019-02-02T20:01:58.391Z,18.50
2019-02-02T20:04:26.333Z,18.93
2019-02-02T20:06:54.180Z,17.90
2019-02-02T20:09:22.140Z,15.97
2019-02-02T20:11:50.051Z,18.10
2019-02-02T20:14:17.867Z,17.80
2019-02-02T20:16:45.690Z,16.10
2019-02-02T20:19:13.604Z,16.73
2019-02-02T20:21:44.460Z,18.40
2019-02-02T20:24:11.056Z,17.47
2019-02-02T20:26:38.925Z,16.50
2019-02-02T20:29:06.774Z,16.13
2019-02-02T20:31:35.008Z,16.30
2019-02-02T20:34:02.871Z,16.43
2019-02-02T20:36:30.822Z,17.17
2019-02-02T20:38:58.731Z,16.73
2019-02-02T20:41:28.252Z,17.30
2019-02-02T20:43:56.090Z,18.60
2019-02-02T20:46:23.909Z,19.07
2019-02-02T20:48:51.786Z,19.67
2019-02-02T20:51:19.740Z,21.83
2019-02-02T20:53:47.858Z,23.00
2019-02-02T20:56:15.840Z,22.90
2019-02-02T20:58:43.730Z,22.77
2019-02-02T21:01:11.668Z,21.33
2019-02-02T21:03:39.618Z,21.93
2019-02-02T21:06:07.636Z,24.07
2019-02-02T21:08:36.012Z,23.93
2019-02-02T21:11:04.054Z,25.20
2019-02-02T21:13:31.943Z,26.30
2019-02-02T21:15:59.953Z,25.27
2019-02-02T21:18:27.945Z,26.40
2019-02-02T21:20:55.892Z,27.37
2019-02-02T21:23:23.704Z,26.33
2019-02-02T21:25:51.622Z,26.37
2019-02-02T21:28:19.422Z,27.90
2019-02-02T21:30:47.512Z,28.27
2019-02-02T21:33:15.555Z,27.33
2019-02-02T21:35:43.536Z,27.70
2019-02-02T21:38:11.435Z,27.70
2019-02-02T21:40:39.340Z,27.60
2019-02-02T21:43:09.243Z,27.57
2019-02-02T21:45:37.445Z,26.80
2019-02-02T21:48:05.706Z,28.30
2019-02-02T21:50:33.578Z,27.97
2019-02-02T21:53:02.128Z,28.97
2019-02-02T21:55:30.117Z,29.87
2019-02-02T21:57:58.085Z,29.13
2019-02-02T22:00:30.528Z,29.40
2019-02-02T22:02:58.538Z,29.60
2019-02-02T22:05:26.484Z,30.80
2019-02-02T22:07:54.607Z,30.97
2019-02-02T22:10:22.710Z,31.07
2019-02-02T22:12:52.862Z,30.07
2019-02-02T22:15:21.269Z,29.13
2019-02-02T22:17:49.345Z,31.33
2019-02-02T22:20:17.352Z,32.13
2019-02-02T22:22:45.328Z,30.73
2019-02-02T22:25:17.285Z,31.03
2019-02-02T22:27:45.572Z,31.80
2019-02-02T22:30:20.626Z,31.87
2019-02-02T22:32:48.664Z,31.23
2019-02-02T22:35:16.626Z,29.47
2019-02-02T22:37:44.584Z,30.83
2019-02-02T22:40:13.614Z,29.40
2019-02-02T22:42:41.754Z,29.30
2019-02-02T22:45:11.625Z,31.10
2019-02-02T22:47:39.679Z,32.03
2019-02-02T22:50:07.690Z,28.27
2019-02-02T22:52:35.795Z,27.37
2019-02-02T22:55:04.187Z,26.73
2019-02-02T22:57:32.176Z,25.27
2019-02-02T23:00:00.089Z,24.23
2019-02-02T23:02:28.407Z,23.47
2019-02-02T23:05:15.674Z,21.30
2019-02-02T23:08:01.682Z,20.83
2019-02-02T23:10:47.556Z,18.63
2019-02-02T23:13:40.593Z,19.17
2019-02-02T23:16:30.436Z,18.93
2019-02-02T23:18:59.062Z,19.43
2019-02-02T23:21:27.414Z,17.57
2019-02-02T23:23:55.263Z,18.73
2019-02-02T23:26:23.235Z,18.50
2019-02-02T23:28:51.157Z,19.50
2019-02-02T23:31:19.040Z,18.93
2019-02-02T23:33:47.569Z,18.10
2019-02-02T23:36:15.684Z,17.43
2019-02-02T23:38:43.631Z,18.00
2019-02-02T23:41:11.565Z,20.23
2019-02-02T23:43:39.408Z,18.77
2019-02-02T23:46:08.972Z,17.67
2019-02-02T23:48:36.882Z,17.83
2019-02-02T23:51:04.799Z,17.50
2019-02-02T23:53:32.645Z,17.73
2019-02-02T23:56:00.510Z,18.03
2019-02-02T23:58:28.418Z,18.33
